createdAt,value
2023-06-30T00:00:36.287Z,4004.00
2023-06-30T00:01:36.297Z,4022.00
2023-06-30T00:02:36.318Z,4041.00
2023-06-30T00:03:36.374Z,4068.00
2023-06-30T00:04:36.302Z,4092.00
2023-06-30T00:05:36.295Z,4099.00
2023-06-30T00:06:36.320Z,4093.00
2023-06-30T00:07:36.385Z,4127.00
2023-06-30T00:08:36.333Z,4119.00
2023-06-30T00:09:36.355Z,4106.00
2023-06-30T00:10:36.368Z,4103.00
2023-06-30T00:11:36.380Z,4109.00
2023-06-30T00:12:36.373Z,4107.00
2023-06-30T00:13:36.383Z,4106.00
2023-06-30T00:14:36.378Z,4109.00
2023-06-30T00:15:36.437Z,4122.00
2023-06-30T00:16:36.439Z,4116.00
2023-06-30T00:17:36.453Z,4125.00
2023-06-30T00:18:36.436Z,4114.00
2023-06-30T00:19:36.458Z,4140.00
2023-06-30T00:20:36.464Z,4139.00
2023-06-30T00:21:36.480Z,4123.00
2023-06-30T00:22:36.487Z,4140.00
2023-06-30T00:23:36.498Z,4136.00
2023-06-30T00:24:36.533Z,4156.00
2023-06-30T00:25:36.539Z,4152.00
2023-06-30T00:26:36.535Z,4170.00
2023-06-30T00:27:36.541Z,4155.00
2023-06-30T00:28:36.542Z,4168.00
2023-06-30T00:29:36.571Z,4167.00
2023-06-30T00:30:36.590Z,4172.00
2023-06-30T00:31:36.686Z,4185.00
2023-06-30T00:32:36.639Z,4199.00
2023-06-30T00:33:36.563Z,4187.00
2023-06-30T00:34:36.583Z,4214.00
2023-06-30T00:35:36.619Z,4217.00
2023-06-30T00:36:36.572Z,4255.00
2023-06-30T00:37:36.583Z,4266.00
2023-06-30T00:38:36.642Z,4253.00
2023-06-30T00:39:36.563Z,4286.00
2023-06-30T00:40:36.572Z,4284.00
2023-06-30T00:41:36.585Z,4281.00
2023-06-30T00:42:36.575Z,4315.00
2023-06-30T00:43:36.588Z,4324.00
2023-06-30T00:44:36.591Z,4328.00
2023-06-30T00:45:36.656Z,4362.00
2023-06-30T00:46:36.641Z,4356.00
2023-06-30T00:47:36.638Z,4385.00
2023-06-30T00:48:36.624Z,4391.00
2023-06-30T00:49:36.632Z,4407.00
2023-06-30T00:50:36.652Z,4410.00
2023-06-30T00:51:36.612Z,4463.00
2023-06-30T00:52:36.615Z,4461.00
2023-06-30T00:53:36.636Z,4456.00
2023-06-30T00:54:36.643Z,4489.00
2023-06-30T00:55:36.652Z,4499.00
2023-06-30T00:56:36.686Z,4522.00
2023-06-30T00:57:36.649Z,4509.00
2023-06-30T00:58:36.649Z,4537.00
2023-06-30T00:59:36.630Z,4533.00
2023-06-30T01:00:36.673Z,4550.00
2023-06-30T01:01:36.692Z,4561.00
2023-06-30T01:02:36.721Z,4564.00
2023-06-30T01:03:36.735Z,4548.00
2023-06-30T01:04:36.862Z,4567.00
2023-06-30T01:05:36.682Z,4568.00
2023-06-30T01:06:36.660Z,4587.00
2023-06-30T01:07:36.857Z,4579.00
2023-06-30T01:08:36.659Z,4566.00
2023-06-30T01:09:36.678Z,4568.00
2023-06-30T01:10:36.696Z,4593.00
2023-06-30T01:11:36.679Z,4612.00
2023-06-30T01:12:36.673Z,4605.00
2023-06-30T01:13:36.688Z,4608.00
2023-06-30T01:14:36.672Z,4626.00
2023-06-30T01:15:36.692Z,4626.00
2023-06-30T01:16:36.707Z,4641.00
2023-06-30T01:17:36.703Z,4644.00
2023-06-30T01:18:36.675Z,4626.00
2023-06-30T01:19:36.699Z,4645.00
2023-06-30T01:20:36.678Z,4636.00
2023-06-30T01:21:36.671Z,4656.00
2023-06-30T01:22:36.667Z,4653.00
2023-06-30T01:23:36.692Z,4656.00
2023-06-30T01:24:36.692Z,4659.00
2023-06-30T01:25:36.733Z,4660.00
2023-06-30T01:26:36.697Z,4659.00
2023-06-30T01:27:36.679Z,4663.00
2023-06-30T01:28:36.710Z,4660.00
2023-06-30T01:29:36.714Z,4673.00
2023-06-30T01:30:36.780Z,4678.00
2023-06-30T01:31:36.687Z,4671.00
2023-06-30T01:32:36.683Z,4683.00
2023-06-30T01:33:36.673Z,4693.00
2023-06-30T01:34:36.717Z,4694.00
2023-06-30T01:35:37.193Z,4695.00
2023-06-30T01:36:36.680Z,4685.00
2023-06-30T01:37:36.686Z,4708.00
2023-06-30T01:38:36.701Z,4722.00
2023-06-30T01:39:36.724Z,4719.00
2023-06-30T01:40:36.762Z,4725.00
2023-06-30T01:41:36.760Z,4732.00
2023-06-30T01:42:36.782Z,4722.00
2023-06-30T01:43:36.805Z,4745.00
2023-06-30T01:44:36.832Z,4747.00
2023-06-30T01:45:36.881Z,4749.00
2023-06-30T01:46:36.933Z,4760.00
2023-06-30T01:47:36.943Z,4755.00
2023-06-30T01:48:36.900Z,4753.00
2023-06-30T01:49:36.912Z,4744.00
2023-06-30T01:50:36.952Z,4769.00
2023-06-30T01:51:36.915Z,4779.00
2023-06-30T01:52:36.922Z,4774.00
2023-06-30T01:53:36.939Z,4782.00
2023-06-30T01:54:36.920Z,4788.00
2023-06-30T01:55:36.976Z,4780.00
2023-06-30T01:56:36.959Z,4789.00
2023-06-30T01:57:36.949Z,4790.00
2023-06-30T01:58:36.957Z,4798.00
2023-06-30T01:59:36.976Z,4782.00
2023-06-30T02:00:36.974Z,4793.00
2023-06-30T02:01:37.012Z,4787.00
2023-06-30T02:02:37.004Z,4788.00
2023-06-30T02:03:37.029Z,4775.00
2023-06-30T02:04:36.991Z,4782.00
2023-06-30T02:05:36.986Z,4783.00
2023-06-30T02:06:36.972Z,4782.00
2023-06-30T02:07:37.183Z,4786.00
2023-06-30T02:08:36.999Z,4803.00
2023-06-30T02:09:47.254Z,4790.00
2023-06-30T02:10:37.985Z,4791.00
2023-06-30T02:11:36.967Z,4792.00
2023-06-30T02:12:36.973Z,4795.00
2023-06-30T02:13:36.942Z,4809.00
2023-06-30T02:14:36.957Z,4831.00
2023-06-30T02:15:36.940Z,4829.00
2023-06-30T02:16:37.013Z,4809.00
2023-06-30T02:17:37.002Z,4834.00
2023-06-30T02:18:36.919Z,4825.00
2023-06-30T02:19:36.908Z,4801.00
2023-06-30T02:20:36.907Z,4813.00
2023-06-30T02:21:36.897Z,4810.00
2023-06-30T02:22:36.899Z,4818.00
2023-06-30T02:23:36.890Z,4814.00
2023-06-30T02:24:36.880Z,4820.00
2023-06-30T02:25:36.877Z,4821.00
2023-06-30T02:26:36.867Z,4814.00
2023-06-30T02:27:36.872Z,4810.00
2023-06-30T02:28:36.856Z,4814.00
2023-06-30T02:29:36.842Z,4817.00
2023-06-30T02:30:36.849Z,4811.00
2023-06-30T02:31:36.882Z,4807.00
2023-06-30T02:32:36.835Z,4807.00
2023-06-30T02:33:36.825Z,4803.00
2023-06-30T02:34:36.817Z,4798.00
2023-06-30T02:35:36.838Z,4782.00
2023-06-30T02:36:36.801Z,4797.00
2023-06-30T02:37:36.785Z,4771.00
2023-06-30T02:38:36.823Z,4782.00
2023-06-30T02:39:36.774Z,4768.00
2023-06-30T02:40:36.770Z,4769.00
2023-06-30T02:41:36.773Z,4766.00
2023-06-30T02:42:36.771Z,4757.00
2023-06-30T02:43:36.762Z,4756.00
2023-06-30T02:44:36.736Z,4734.00
2023-06-30T02:45:36.761Z,4772.00
2023-06-30T02:46:36.733Z,4782.00
2023-06-30T02:47:36.724Z,4745.00
2023-06-30T02:48:36.720Z,4749.00
2023-06-30T02:49:36.727Z,4749.00
2023-06-30T02:50:36.723Z,4755.00
2023-06-30T02:51:36.714Z,4753.00
2023-06-30T02:52:36.744Z,4748.00
2023-06-30T02:53:36.711Z,4753.00
2023-06-30T02:54:36.735Z,4734.00
2023-06-30T02:55:38.888Z,4756.00
2023-06-30T02:56:36.874Z,4757.00
2023-06-30T02:57:36.885Z,4742.00
2023-06-30T02:58:36.915Z,4735.00
2023-06-30T02:59:36.870Z,4727.00
2023-06-30T03:00:36.890Z,4724.00
2023-06-30T03:01:37.018Z,4739.00
2023-06-30T03:02:37.059Z,4736.00
2023-06-30T03:03:37.114Z,4727.00
2023-06-30T03:04:36.897Z,4719.00
2023-06-30T03:05:36.928Z,4719.00
2023-06-30T03:06:36.904Z,4727.00
2023-06-30T03:07:37.001Z,4697.00
2023-06-30T03:08:36.938Z,4714.00
2023-06-30T03:09:36.947Z,4715.00
2023-06-30T03:10:37.209Z,4689.00
2023-06-30T03:11:36.962Z,4693.00
2023-06-30T03:12:36.945Z,4690.00
2023-06-30T03:13:36.948Z,4690.00
2023-06-30T03:14:36.958Z,4702.00
2023-06-30T03:15:36.970Z,4695.00
2023-06-30T03:16:37.005Z,4693.00
2023-06-30T03:17:37.006Z,4681.00
2023-06-30T03:18:36.997Z,4707.00
2023-06-30T03:19:37.008Z,4688.00
2023-06-30T03:20:37.011Z,4688.00
2023-06-30T03:21:37.006Z,4699.00
2023-06-30T03:22:37.025Z,4680.00
2023-06-30T03:23:37.041Z,4691.00
2023-06-30T03:24:37.027Z,4683.00
2023-06-30T03:25:37.039Z,4669.00
2023-06-30T03:26:37.073Z,4661.00
2023-06-30T03:27:37.073Z,4671.00
2023-06-30T03:28:37.079Z,4672.00
2023-06-30T03:29:37.088Z,4651.00
2023-06-30T03:30:37.127Z,4651.00
2023-06-30T03:31:37.159Z,4660.00
2023-06-30T03:32:37.155Z,4662.00
2023-06-30T03:33:37.129Z,4649.00
2023-06-30T03:34:37.162Z,4638.00
2023-06-30T03:35:37.170Z,4660.00
2023-06-30T03:36:37.197Z,4633.00
2023-06-30T03:37:37.203Z,4635.00
2023-06-30T03:38:37.229Z,4627.00
2023-06-30T03:39:37.230Z,4627.00
2023-06-30T03:40:37.321Z,4615.00
2023-06-30T03:41:37.274Z,4631.00
2023-06-30T03:42:37.288Z,4624.00
2023-06-30T03:43:37.269Z,4616.00
2023-06-30T03:44:37.304Z,4615.00
2023-06-30T03:45:37.332Z,4620.00
2023-06-30T03:46:37.422Z,4604.00
2023-06-30T03:47:37.323Z,4608.00
2023-06-30T03:48:37.398Z,4615.00
2023-06-30T03:49:37.348Z,4604.00
2023-06-30T03:50:37.368Z,4616.00
2023-06-30T03:51:37.392Z,4602.00
2023-06-30T03:52:37.395Z,4596.00
2023-06-30T03:53:37.361Z,4596.00
2023-06-30T03:54:37.400Z,4587.00
2023-06-30T03:55:37.733Z,4586.00
2023-06-30T03:56:37.373Z,4585.00
2023-06-30T03:57:37.414Z,4574.00
2023-06-30T03:58:37.400Z,4582.00
2023-06-30T03:59:37.407Z,4580.00
2023-06-30T04:00:37.385Z,4567.00
2023-06-30T04:01:37.399Z,4568.00
2023-06-30T04:02:37.457Z,4571.00
2023-06-30T04:03:37.584Z,4562.00
2023-06-30T04:04:37.478Z,4550.00
2023-06-30T04:05:37.357Z,4544.00
2023-06-30T04:06:37.366Z,4534.00
2023-06-30T04:07:37.382Z,4544.00
2023-06-30T04:08:37.363Z,4539.00
2023-06-30T04:09:37.371Z,4531.00
2023-06-30T04:10:37.394Z,4554.00
2023-06-30T04:11:37.370Z,4534.00
2023-06-30T04:12:37.369Z,4536.00
2023-06-30T04:13:37.418Z,4535.00
2023-06-30T04:14:37.403Z,4529.00
2023-06-30T04:15:37.378Z,4527.00
2023-06-30T04:16:37.422Z,4516.00
2023-06-30T04:17:37.443Z,4524.00
2023-06-30T04:18:37.418Z,4521.00
2023-06-30T04:19:37.405Z,4506.00
2023-06-30T04:20:37.397Z,4512.00
2023-06-30T04:21:37.430Z,4510.00
2023-06-30T04:22:37.422Z,4506.00
2023-06-30T04:23:37.513Z,4515.00
2023-06-30T04:24:37.420Z,4493.00
2023-06-30T04:25:37.441Z,4494.00
2023-06-30T04:26:37.449Z,4495.00
2023-06-30T04:27:37.498Z,4493.00
2023-06-30T04:28:37.485Z,4495.00
2023-06-30T04:29:37.531Z,4472.00
2023-06-30T04:30:37.754Z,4489.00
2023-06-30T04:31:37.657Z,4488.00
2023-06-30T04:32:37.659Z,4480.00
2023-06-30T04:33:37.605Z,4496.00
2023-06-30T04:34:37.622Z,4499.00
2023-06-30T04:35:37.801Z,4477.00
2023-06-30T04:36:37.650Z,4485.00
2023-06-30T04:37:37.671Z,4467.00
2023-06-30T04:38:37.727Z,4474.00
2023-06-30T04:39:37.706Z,4450.00
2023-06-30T04:40:37.737Z,4427.00
2023-06-30T04:41:37.742Z,4432.00
2023-06-30T04:42:37.786Z,4432.00
2023-06-30T04:43:37.783Z,4421.00
2023-06-30T04:44:37.793Z,4408.00
2023-06-30T04:45:37.831Z,4408.00
2023-06-30T04:46:37.947Z,4406.00
2023-06-30T04:47:37.908Z,4397.00
2023-06-30T04:48:37.885Z,4390.00
2023-06-30T04:49:37.917Z,4386.00
2023-06-30T04:50:37.939Z,4406.00
2023-06-30T04:51:37.951Z,4398.00
2023-06-30T04:52:37.978Z,4391.00
2023-06-30T04:53:38.010Z,4394.00
2023-06-30T04:54:38.017Z,4386.00
2023-06-30T04:55:38.095Z,4398.00
2023-06-30T04:56:38.085Z,4391.00
2023-06-30T04:57:38.091Z,4389.00
2023-06-30T04:58:38.118Z,4380.00
2023-06-30T04:59:38.138Z,4383.00
2023-06-30T05:00:38.150Z,4387.00
2023-06-30T05:01:38.244Z,4398.00
2023-06-30T05:02:38.267Z,4402.00
2023-06-30T05:03:38.241Z,4397.00
2023-06-30T05:04:38.252Z,4394.00
2023-06-30T05:05:38.276Z,4391.00
2023-06-30T05:06:38.296Z,4404.00
2023-06-30T05:07:38.372Z,4398.00
2023-06-30T05:08:38.316Z,4389.00
2023-06-30T05:09:38.314Z,4386.00
2023-06-30T05:10:38.366Z,4386.00
2023-06-30T05:11:38.378Z,4379.00
2023-06-30T05:12:38.389Z,4377.00
2023-06-30T05:13:38.395Z,4371.00
2023-06-30T05:14:38.417Z,4375.00
2023-06-30T05:15:38.578Z,4355.00
2023-06-30T05:16:38.591Z,4346.00
2023-06-30T05:17:38.562Z,4342.00
2023-06-30T05:18:38.484Z,4335.00
2023-06-30T05:19:38.505Z,4319.00
2023-06-30T05:20:38.541Z,4317.00
2023-06-30T05:21:38.572Z,4312.00
2023-06-30T05:22:38.584Z,4314.00
2023-06-30T05:23:38.701Z,4295.00
2023-06-30T05:24:38.637Z,4301.00
2023-06-30T05:25:38.708Z,4311.00
2023-06-30T05:26:38.719Z,4312.00
2023-06-30T05:27:38.735Z,4300.00
2023-06-30T05:28:38.861Z,4281.00
2023-06-30T05:29:38.781Z,4285.00
2023-06-30T05:30:38.830Z,4277.00
2023-06-30T05:31:38.855Z,4266.00
2023-06-30T05:32:38.948Z,4282.00
2023-06-30T05:33:38.887Z,4360.00
2023-06-30T05:34:38.897Z,4444.00
2023-06-30T05:35:38.906Z,4491.00
2023-06-30T05:36:38.918Z,4447.00
2023-06-30T05:37:38.978Z,4403.00
2023-06-30T05:38:38.981Z,4386.00
2023-06-30T05:39:39.024Z,4329.00
2023-06-30T05:40:39.069Z,4325.00
2023-06-30T05:41:39.133Z,4329.00
2023-06-30T05:42:39.156Z,4328.00
2023-06-30T05:43:39.205Z,4312.00
2023-06-30T05:44:39.301Z,4314.00
2023-06-30T05:45:39.310Z,4294.00
2023-06-30T05:46:39.434Z,4268.00
2023-06-30T05:47:39.448Z,4275.00
2023-06-30T05:48:39.485Z,4252.00
2023-06-30T05:49:39.554Z,4244.00
2023-06-30T05:50:40.931Z,4255.00
2023-06-30T05:51:39.589Z,4269.00
2023-06-30T05:52:39.629Z,4275.00
2023-06-30T05:53:39.570Z,4288.00
2023-06-30T05:54:39.570Z,4283.00
2023-06-30T05:55:39.597Z,4255.00
2023-06-30T05:56:39.564Z,4212.00
2023-06-30T05:57:39.547Z,4185.00
2023-06-30T05:58:39.550Z,4157.00
2023-06-30T05:59:39.534Z,4164.00
2023-06-30T06:00:39.541Z,4141.00
2023-06-30T06:01:39.594Z,4107.00
2023-06-30T06:02:39.630Z,4075.00
2023-06-30T06:03:39.653Z,4000.00
2023-06-30T06:04:39.742Z,3932.00
2023-06-30T06:05:39.935Z,3895.00
2023-06-30T06:06:39.504Z,3919.00
2023-06-30T06:07:39.569Z,3951.00
2023-06-30T06:08:39.495Z,3971.00
2023-06-30T06:09:39.492Z,3972.00
2023-06-30T06:10:39.799Z,3973.00
2023-06-30T06:11:39.465Z,3967.00
2023-06-30T06:12:39.492Z,3910.00
2023-06-30T06:13:39.455Z,3850.00
2023-06-30T06:14:39.445Z,3809.00
2023-06-30T06:15:39.433Z,3781.00
2023-06-30T06:16:39.451Z,3744.00
2023-06-30T06:17:39.572Z,3726.00
2023-06-30T06:18:39.438Z,3699.00
2023-06-30T06:19:39.404Z,3709.00
2023-06-30T06:20:39.420Z,3728.00
2023-06-30T06:21:39.396Z,3738.00
2023-06-30T06:22:39.381Z,3738.00
2023-06-30T06:23:39.386Z,3720.00
2023-06-30T06:24:39.384Z,3725.00
2023-06-30T06:25:39.380Z,3699.00
2023-06-30T06:26:39.348Z,3719.00
2023-06-30T06:27:39.366Z,3730.00
2023-06-30T06:28:39.360Z,3732.00
2023-06-30T06:29:39.345Z,3782.00
2023-06-30T06:30:39.344Z,3777.00
2023-06-30T06:31:39.314Z,3755.00
2023-06-30T06:32:39.410Z,3801.00
2023-06-30T06:33:39.401Z,3776.00
2023-06-30T06:34:39.467Z,3776.00
2023-06-30T06:35:39.554Z,3770.00
2023-06-30T06:36:39.564Z,3730.00
2023-06-30T06:37:39.606Z,3735.00
2023-06-30T06:38:39.666Z,3731.00
2023-06-30T06:39:39.695Z,3775.00
2023-06-30T06:40:39.744Z,3778.00
2023-06-30T06:41:39.781Z,3793.00
2023-06-30T06:42:39.831Z,3800.00
2023-06-30T06:43:39.896Z,3779.00
2023-06-30T06:44:40.665Z,3777.00
2023-06-30T06:45:40.040Z,3776.00
2023-06-30T06:46:40.178Z,3768.00
2023-06-30T06:47:40.167Z,3708.00
2023-06-30T06:48:40.149Z,3612.00
2023-06-30T06:49:40.115Z,3593.00
2023-06-30T06:50:40.127Z,3577.00
2023-06-30T06:51:40.147Z,3586.00
2023-06-30T06:52:40.153Z,3575.00
2023-06-30T06:53:40.165Z,3577.00
2023-06-30T06:54:40.177Z,3592.00
2023-06-30T06:55:40.194Z,3581.00
2023-06-30T06:56:40.207Z,3611.00
2023-06-30T06:57:40.258Z,3630.00
2023-06-30T06:58:40.216Z,3627.00
2023-06-30T06:59:40.240Z,3636.00
2023-06-30T07:00:40.266Z,3619.00
2023-06-30T07:01:40.292Z,3568.00
2023-06-30T07:02:40.330Z,3541.00
2023-06-30T07:03:40.330Z,3487.00
2023-06-30T07:04:40.313Z,3459.00
2023-06-30T07:05:40.341Z,3434.00
2023-06-30T07:06:40.380Z,3402.00
2023-06-30T07:07:40.444Z,3387.00
2023-06-30T07:08:40.487Z,3332.00
2023-06-30T07:09:40.441Z,3317.00
2023-06-30T07:10:40.520Z,3322.00
2023-06-30T07:11:40.515Z,3324.00
2023-06-30T07:12:40.550Z,3320.00
2023-06-30T07:13:40.573Z,3319.00
2023-06-30T07:14:41.604Z,3314.00
2023-06-30T07:15:40.637Z,3312.00
2023-06-30T07:16:40.688Z,3350.00
2023-06-30T07:17:40.778Z,3355.00
2023-06-30T07:18:40.759Z,3375.00
2023-06-30T07:19:40.733Z,3362.00
2023-06-30T07:20:40.766Z,3367.00
2023-06-30T07:21:40.931Z,3357.00
2023-06-30T07:22:40.805Z,3330.00
2023-06-30T07:23:40.835Z,3276.00
2023-06-30T07:24:43.765Z,3264.00
2023-06-30T07:25:40.887Z,3249.00
2023-06-30T07:26:40.870Z,3402.00
2023-06-30T07:27:40.861Z,3453.00
2023-06-30T07:28:40.833Z,3436.00
2023-06-30T07:29:40.891Z,3396.00
2023-06-30T07:30:40.827Z,3408.00
2023-06-30T07:31:40.856Z,3409.00
2023-06-30T07:32:40.858Z,3401.00
2023-06-30T07:33:40.802Z,3405.00
2023-06-30T07:34:40.811Z,3404.00
2023-06-30T07:35:40.835Z,3402.00
2023-06-30T07:36:40.810Z,3363.00
2023-06-30T07:37:40.773Z,3361.00
2023-06-30T07:38:40.768Z,3360.00
2023-06-30T07:39:40.756Z,3362.00
2023-06-30T07:40:54.965Z,3366.00
2023-06-30T07:41:41.762Z,3366.00
2023-06-30T07:42:40.744Z,3363.00
2023-06-30T07:43:40.731Z,3339.00
2023-06-30T07:44:40.744Z,3329.00
2023-06-30T07:45:40.777Z,3429.00
2023-06-30T07:46:40.803Z,3515.00
2023-06-30T07:47:40.850Z,3590.00
2023-06-30T07:48:40.760Z,3562.00
2023-06-30T07:49:40.703Z,3522.00
2023-06-30T07:50:44.962Z,3521.00
2023-06-30T07:51:41.689Z,3523.00
2023-06-30T07:52:42.164Z,3531.00
2023-06-30T07:53:40.927Z,3546.00
2023-06-30T07:54:40.971Z,3546.00
2023-06-30T07:55:40.972Z,3580.00
2023-06-30T07:56:40.997Z,3618.00
2023-06-30T07:57:41.071Z,3615.00
2023-06-30T07:58:41.055Z,3621.00
2023-06-30T07:59:41.062Z,3625.00
2023-06-30T08:00:41.105Z,3638.00
2023-06-30T08:01:41.130Z,3676.00
2023-06-30T08:02:41.221Z,3670.00
2023-06-30T08:03:41.497Z,3677.00
2023-06-30T08:04:41.462Z,3714.00
2023-06-30T08:05:41.503Z,3724.00
2023-06-30T08:06:41.282Z,3700.00
2023-06-30T08:07:48.541Z,3709.00
2023-06-30T08:08:42.293Z,3710.00
2023-06-30T08:09:41.282Z,3718.00
2023-06-30T08:10:42.233Z,3735.00
2023-06-30T08:11:41.263Z,3755.00
2023-06-30T08:12:41.254Z,3777.00
2023-06-30T08:13:41.254Z,3764.00
2023-06-30T08:14:41.266Z,3708.00
2023-06-30T08:15:41.373Z,3681.00
2023-06-30T08:16:41.285Z,3663.00
2023-06-30T08:17:51.852Z,3598.00
2023-06-30T08:18:51.296Z,3552.00
2023-06-30T08:19:48.597Z,3486.00
2023-06-30T08:20:42.215Z,3434.00
2023-06-30T08:21:41.251Z,3347.00
2023-06-30T08:22:41.213Z,3316.00
2023-06-30T08:23:41.208Z,3256.00
2023-06-30T08:24:41.210Z,3295.00
2023-06-30T08:25:41.205Z,3447.00
2023-06-30T08:26:41.179Z,3597.00
2023-06-30T08:27:41.169Z,3587.00
2023-06-30T08:28:41.155Z,3513.00
2023-06-30T08:29:41.141Z,3433.00
2023-06-30T08:30:41.155Z,3436.00
2023-06-30T08:31:41.133Z,3441.00
2023-06-30T08:32:41.170Z,3392.00
2023-06-30T08:33:41.448Z,3310.00
2023-06-30T08:34:41.114Z,3289.00
2023-06-30T08:35:41.128Z,3303.00
2023-06-30T08:36:42.356Z,3299.00
2023-06-30T08:37:41.127Z,3298.00
2023-06-30T08:38:41.100Z,3283.00
2023-06-30T08:39:41.076Z,3249.00
2023-06-30T08:40:41.092Z,3282.00
2023-06-30T08:41:41.376Z,3447.00
2023-06-30T08:42:41.082Z,3713.00
2023-06-30T08:43:41.052Z,3704.00
2023-06-30T08:44:41.055Z,3643.00
2023-06-30T08:45:41.038Z,3611.00
2023-06-30T08:46:41.426Z,3615.00
2023-06-30T08:47:42.931Z,3549.00
2023-06-30T08:48:41.009Z,3501.00
2023-06-30T08:49:41.006Z,3487.00
2023-06-30T08:50:41.034Z,3505.00
2023-06-30T08:51:40.996Z,3518.00
2023-06-30T08:52:40.995Z,3537.00
2023-06-30T08:53:41.013Z,3509.00
2023-06-30T08:54:41.867Z,3508.00
2023-06-30T08:55:40.978Z,3463.00
2023-06-30T08:56:40.988Z,3385.00
2023-06-30T08:57:40.970Z,3345.00
2023-06-30T08:58:40.944Z,3353.00
2023-06-30T08:59:40.942Z,3318.00
2023-06-30T09:00:41.011Z,3346.00
2023-06-30T09:01:41.046Z,3366.00
2023-06-30T09:02:41.218Z,3361.00
2023-06-30T09:03:41.141Z,3329.00
2023-06-30T09:04:41.109Z,3354.00
2023-06-30T09:05:41.140Z,3354.00
2023-06-30T09:06:41.164Z,3369.00
2023-06-30T09:07:41.439Z,3366.00
2023-06-30T09:08:41.249Z,3347.00
2023-06-30T09:09:41.317Z,3377.00
2023-06-30T09:10:41.307Z,3343.00
2023-06-30T09:11:41.337Z,3355.00
2023-06-30T09:12:41.378Z,3402.00
2023-06-30T09:13:41.376Z,3418.00
2023-06-30T09:14:41.417Z,3439.00
2023-06-30T09:15:41.446Z,3404.00
2023-06-30T09:16:41.516Z,3399.00
2023-06-30T09:17:41.567Z,3414.00
2023-06-30T09:18:41.519Z,3433.00
2023-06-30T09:19:41.554Z,3419.00
2023-06-30T09:20:41.608Z,3391.00
2023-06-30T09:21:41.614Z,3336.00
2023-06-30T09:22:51.548Z,3315.00
2023-06-30T09:23:42.662Z,3316.00
2023-06-30T09:24:41.622Z,3330.00
2023-06-30T09:25:41.663Z,3361.00
2023-06-30T09:26:41.605Z,3405.00
2023-06-30T09:27:41.589Z,3443.00
2023-06-30T09:28:41.589Z,3458.00
2023-06-30T09:29:41.589Z,3516.00
2023-06-30T09:30:41.570Z,3569.00
2023-06-30T09:31:41.600Z,3583.00
2023-06-30T09:32:41.590Z,3639.00
2023-06-30T09:33:41.556Z,3711.00
2023-06-30T09:34:41.553Z,3762.00
2023-06-30T09:35:41.582Z,3825.00
2023-06-30T09:36:41.601Z,3828.00
2023-06-30T09:37:41.701Z,3795.00
2023-06-30T09:38:41.733Z,3779.00
2023-06-30T09:39:41.740Z,3748.00
2023-06-30T09:40:41.889Z,3745.00
2023-06-30T09:41:41.831Z,3738.00
2023-06-30T09:42:41.912Z,3742.00
2023-06-30T09:43:41.904Z,3723.00
2023-06-30T09:44:41.956Z,3682.00
2023-06-30T09:45:42.421Z,3646.00
2023-06-30T09:46:42.129Z,3654.00
2023-06-30T09:47:42.146Z,3630.00
2023-06-30T09:48:42.122Z,3615.00
2023-06-30T09:49:42.218Z,3596.00
2023-06-30T09:50:42.250Z,3595.00
2023-06-30T09:51:42.279Z,3590.00
2023-06-30T09:52:42.336Z,3590.00
2023-06-30T09:53:42.444Z,3577.00
2023-06-30T09:54:44.934Z,3556.00
2023-06-30T09:55:42.657Z,3539.00
2023-06-30T09:56:42.405Z,3528.00
2023-06-30T09:57:42.449Z,3530.00
2023-06-30T09:58:42.409Z,3514.00
2023-06-30T09:59:42.389Z,3515.00
2023-06-30T10:00:42.400Z,3490.00
2023-06-30T10:01:42.441Z,3487.00
2023-06-30T10:02:42.445Z,3478.00
2023-06-30T10:03:42.424Z,3475.00
2023-06-30T10:04:42.391Z,3490.00
2023-06-30T10:05:42.384Z,3498.00
2023-06-30T10:06:42.397Z,3505.00
2023-06-30T10:07:42.343Z,3486.00
2023-06-30T10:08:42.318Z,3470.00
2023-06-30T10:09:42.316Z,3473.00
2023-06-30T10:10:42.350Z,3460.00
2023-06-30T10:11:42.306Z,3446.00
2023-06-30T10:12:44.247Z,3421.00
2023-06-30T10:13:42.279Z,3373.00
2023-06-30T10:14:42.305Z,3358.00
2023-06-30T10:15:42.431Z,3323.00
2023-06-30T10:16:42.263Z,3299.00
2023-06-30T10:17:42.419Z,3297.00
2023-06-30T10:18:42.294Z,3250.00
2023-06-30T10:19:42.232Z,3236.00
2023-06-30T10:20:47.935Z,3233.00
2023-06-30T10:21:43.227Z,3234.00
2023-06-30T10:22:42.218Z,3238.00
2023-06-30T10:23:42.203Z,3244.00
2023-06-30T10:24:42.200Z,3259.00
2023-06-30T10:25:42.196Z,3477.00
2023-06-30T10:26:42.250Z,3595.00
2023-06-30T10:27:42.224Z,3686.00
2023-06-30T10:28:42.189Z,3694.00
2023-06-30T10:29:42.168Z,3703.00
2023-06-30T10:30:42.174Z,3650.00
2023-06-30T10:31:42.169Z,3601.00
2023-06-30T10:32:42.217Z,3611.00
2023-06-30T10:33:42.184Z,3612.00
2023-06-30T10:34:42.156Z,3526.00
2023-06-30T10:35:42.149Z,3453.00
2023-06-30T10:36:42.127Z,3422.00
2023-06-30T10:37:42.132Z,3400.00
2023-06-30T10:38:42.116Z,3388.00
2023-06-30T10:39:42.117Z,3366.00
2023-06-30T10:40:42.110Z,3341.00
2023-06-30T10:41:42.092Z,3343.00
2023-06-30T10:42:42.129Z,3393.00
2023-06-30T10:43:42.090Z,3356.00
2023-06-30T10:44:42.101Z,3357.00
2023-06-30T10:45:42.150Z,3371.00
2023-06-30T10:46:42.144Z,3385.00
2023-06-30T10:47:42.097Z,3402.00
2023-06-30T10:48:42.085Z,3394.00
2023-06-30T10:49:42.078Z,3428.00
2023-06-30T10:50:42.113Z,3422.00
2023-06-30T10:51:42.089Z,3438.00
2023-06-30T10:52:42.116Z,3454.00
2023-06-30T10:53:42.111Z,3423.00
2023-06-30T10:54:42.159Z,3408.00
2023-06-30T10:55:42.143Z,3404.00
2023-06-30T10:56:42.137Z,3393.00
2023-06-30T10:57:42.158Z,3430.00
2023-06-30T10:58:42.181Z,3420.00
2023-06-30T10:59:42.159Z,3365.00
2023-06-30T11:00:42.162Z,3344.00
2023-06-30T11:01:42.158Z,3366.00
2023-06-30T11:02:42.333Z,3351.00
2023-06-30T11:03:42.315Z,3351.00
2023-06-30T11:04:42.228Z,3327.00
2023-06-30T11:05:42.202Z,3308.00
2023-06-30T11:06:42.148Z,3261.00
2023-06-30T11:07:42.220Z,3235.00
2023-06-30T11:08:42.179Z,3233.00
2023-06-30T11:09:42.167Z,3232.00
2023-06-30T11:10:42.190Z,3268.00
2023-06-30T11:11:42.170Z,3272.00
2023-06-30T11:12:42.177Z,3282.00
2023-06-30T11:13:42.168Z,3294.00
2023-06-30T11:14:42.178Z,3295.00
2023-06-30T11:15:42.212Z,3318.00
2023-06-30T11:16:42.207Z,3429.00
2023-06-30T11:17:42.256Z,3664.00
2023-06-30T11:18:42.371Z,3985.00
2023-06-30T11:19:42.275Z,4244.00
2023-06-30T11:20:42.288Z,4318.00
2023-06-30T11:21:42.335Z,4417.00
2023-06-30T11:22:42.393Z,4351.00
2023-06-30T11:23:42.473Z,4219.00
2023-06-30T11:24:42.485Z,4130.00
2023-06-30T11:25:42.549Z,4055.00
2023-06-30T11:26:42.600Z,3926.00
2023-06-30T11:27:42.649Z,3798.00
2023-06-30T11:28:42.709Z,3557.00
2023-06-30T11:29:42.788Z,3406.00
2023-06-30T11:30:42.864Z,3241.00
2023-06-30T11:31:42.940Z,3050.00
2023-06-30T11:32:42.945Z,2905.00
2023-06-30T11:33:42.952Z,2868.00
2023-06-30T11:34:43.021Z,2837.00
2023-06-30T11:35:43.070Z,2798.00
2023-06-30T11:36:43.437Z,2754.00
2023-06-30T11:37:43.191Z,2690.00
2023-06-30T11:38:43.249Z,2614.00
2023-06-30T11:39:43.271Z,2603.00
2023-06-30T11:40:43.321Z,2551.00
2023-06-30T11:41:43.342Z,2493.00
2023-06-30T11:42:43.349Z,2392.00
2023-06-30T11:43:43.347Z,2358.00
2023-06-30T11:44:43.362Z,2319.00
2023-06-30T11:45:43.640Z,2307.00
2023-06-30T11:46:43.404Z,2318.00
2023-06-30T11:47:43.402Z,2319.00
2023-06-30T11:48:43.405Z,2285.00
2023-06-30T11:49:43.368Z,2281.00
2023-06-30T11:50:43.534Z,2311.00
2023-06-30T11:51:43.370Z,2293.00
2023-06-30T11:52:43.360Z,2295.00
2023-06-30T11:53:43.374Z,2248.00
2023-06-30T11:54:43.406Z,2231.00
2023-06-30T11:55:43.598Z,2204.00
2023-06-30T11:56:43.426Z,2149.00
2023-06-30T11:57:43.423Z,2128.00
2023-06-30T11:58:43.445Z,2066.00
2023-06-30T11:59:43.462Z,2040.00
2023-06-30T12:00:43.789Z,2034.00
2023-06-30T12:01:43.492Z,2090.00
2023-06-30T12:02:43.601Z,2107.00
2023-06-30T12:03:43.680Z,2021.00
2023-06-30T12:04:43.680Z,1953.00
2023-06-30T12:05:44.026Z,1905.00